sensor_id;sensor_type;location;lat;lon;timestamp;P1;durP1;ratioP1;P2;durP2;ratioP2
43154;SDS011;34212;51.018;13.586;2023-08-07T00:00:11;3.43;;;2.00;;
43154;SDS011;34212;51.018;13.586;2023-08-07T00:05:14;3.97;;;2.10;;
43154;SDS011;34212;51.018;13.586;2023-08-07T00:10:15;5.95;;;2.10;;
43154;SDS011;34212;51.018;13.586;2023-08-07T00:15:17;2.83;;;1.90;;
43154;SDS011;34212;51.018;13.586;2023-08-07T00:20:19;2.20;;;1.93;;
43154;SDS011;34212;51.018;13.586;2023-08-07T00:25:20;3.83;;;2.23;;
43154;SDS011;34212;51.018;13.586;2023-08-07T00:30:22;4.70;;;2.17;;
43154;SDS011;34212;51.018;13.586;2023-08-07T00:35:23;3.33;;;2.33;;
43154;SDS011;34212;51.018;13.586;2023-08-07T00:40:25;4.20;;;2.17;;
43154;SDS011;34212;51.018;13.586;2023-08-07T00:45:26;3.03;;;2.40;;
43154;SDS011;34212;51.018;13.586;2023-08-07T00:50:28;3.03;;;2.23;;
43154;SDS011;34212;51.018;13.586;2023-08-07T00:55:47;2.72;;;2.10;;
43154;SDS011;34212;51.018;13.586;2023-08-07T01:00:49;4.57;;;2.20;;
43154;SDS011;34212;51.018;13.586;2023-08-07T01:05:50;4.57;;;2.87;;
43154;SDS011;34212;51.018;13.586;2023-08-07T01:16:31;3.95;;;2.60;;
43154;SDS011;34212;51.018;13.586;2023-08-07T01:21:48;5.63;;;2.55;;
43154;SDS011;34212;51.018;13.586;2023-08-07T01:26:50;6.70;;;2.53;;
43154;SDS011;34212;51.018;13.586;2023-08-07T01:31:55;9.52;;;2.70;;
43154;SDS011;34212;51.018;13.586;2023-08-07T01:37:00;3.30;;;2.90;;
43154;SDS011;34212;51.018;13.586;2023-08-07T01:42:04;4.65;;;2.35;;
43154;SDS011;34212;51.018;13.586;2023-08-07T01:47:06;3.63;;;2.58;;
43154;SDS011;34212;51.018;13.586;2023-08-07T01:52:08;2.57;;;2.20;;
43154;SDS011;34212;51.018;13.586;2023-08-07T01:57:10;3.65;;;3.20;;
43154;SDS011;34212;51.018;13.586;2023-08-07T02:02:12;4.13;;;3.47;;
43154;SDS011;34212;51.018;13.586;2023-08-07T02:07:14;4.40;;;3.97;;
43154;SDS011;34212;51.018;13.586;2023-08-07T02:12:15;5.10;;;4.60;;
43154;SDS011;34212;51.018;13.586;2023-08-07T02:17:17;7.03;;;4.93;;
43154;SDS011;34212;51.018;13.586;2023-08-07T02:22:18;5.57;;;4.97;;
43154;SDS011;34212;51.018;13.586;2023-08-07T02:27:20;6.88;;;5.18;;
43154;SDS011;34212;51.018;13.586;2023-08-07T02:32:21;5.68;;;5.10;;
43154;SDS011;34212;51.018;13.586;2023-08-07T02:37:23;5.30;;;4.80;;
43154;SDS011;34212;51.018;13.586;2023-08-07T02:42:25;5.75;;;5.22;;
43154;SDS011;34212;51.018;13.586;2023-08-07T02:47:26;10.17;;;5.90;;
43154;SDS011;34212;51.018;13.586;2023-08-07T02:52:29;5.83;;;5.27;;
43154;SDS011;34212;51.018;13.586;2023-08-07T02:57:30;4.60;;;4.05;;
43154;SDS011;34212;51.018;13.586;2023-08-07T03:02:32;4.17;;;3.03;;
43154;SDS011;34212;51.018;13.586;2023-08-07T03:07:33;4.20;;;3.13;;
43154;SDS011;34212;51.018;13.586;2023-08-07T03:12:35;3.80;;;3.40;;
43154;SDS011;34212;51.018;13.586;2023-08-07T03:17:38;4.93;;;3.50;;
43154;SDS011;34212;51.018;13.586;2023-08-07T03:22:40;4.97;;;3.25;;
43154;SDS011;34212;51.018;13.586;2023-08-07T03:27:41;7.47;;;3.70;;
43154;SDS011;34212;51.018;13.586;2023-08-07T03:32:43;5.50;;;3.23;;
43154;SDS011;34212;51.018;13.586;2023-08-07T03:37:46;5.80;;;3.45;;
43154;SDS011;34212;51.018;13.586;2023-08-07T03:42:48;5.40;;;3.90;;
43154;SDS011;34212;51.018;13.586;2023-08-07T03:47:49;5.73;;;4.17;;
43154;SDS011;34212;51.018;13.586;2023-08-07T03:52:51;9.70;;;4.00;;
43154;SDS011;34212;51.018;13.586;2023-08-07T03:57:53;7.07;;;4.07;;
43154;SDS011;34212;51.018;13.586;2023-08-07T04:02:54;6.83;;;4.00;;
43154;SDS011;34212;51.018;13.586;2023-08-07T04:07:56;6.10;;;4.47;;
43154;SDS011;34212;51.018;13.586;2023-08-07T04:12:58;6.50;;;5.27;;
43154;SDS011;34212;51.018;13.586;2023-08-07T04:17:59;6.70;;;5.17;;
43154;SDS011;34212;51.018;13.586;2023-08-07T04:23:01;6.50;;;4.87;;
43154;SDS011;34212;51.018;13.586;2023-08-07T04:28:02;7.57;;;5.90;;
43154;SDS011;34212;51.018;13.586;2023-08-07T04:33:04;16.85;;;7.60;;
43154;SDS011;34212;51.018;13.586;2023-08-07T04:38:06;10.13;;;7.25;;
43154;SDS011;34212;51.018;13.586;2023-08-07T04:43:07;7.72;;;6.07;;
43154;SDS011;34212;51.018;13.586;2023-08-07T04:48:09;13.02;;;7.18;;
43154;SDS011;34212;51.018;13.586;2023-08-07T04:53:10;9.17;;;6.67;;
43154;SDS011;34212;51.018;13.586;2023-08-07T04:58:12;11.63;;;6.37;;
43154;SDS011;34212;51.018;13.586;2023-08-07T05:03:13;10.03;;;6.40;;
43154;SDS011;34212;51.018;13.586;2023-08-07T05:08:16;7.50;;;6.00;;
43154;SDS011;34212;51.018;13.586;2023-08-07T05:13:18;7.10;;;5.95;;
43154;SDS011;34212;51.018;13.586;2023-08-07T05:18:19;7.85;;;5.38;;
43154;SDS011;34212;51.018;13.586;2023-08-07T05:23:21;11.80;;;6.40;;
43154;SDS011;34212;51.018;13.586;2023-08-07T05:28:23;11.00;;;6.07;;
43154;SDS011;34212;51.018;13.586;2023-08-07T05:33:24;8.73;;;6.40;;
43154;SDS011;34212;51.018;13.586;2023-08-07T05:38:26;7.90;;;4.70;;
43154;SDS011;34212;51.018;13.586;2023-08-07T05:43:35;8.15;;;5.15;;
43154;SDS011;34212;51.018;13.586;2023-08-07T05:49:51;7.38;;;4.32;;
43154;SDS011;34212;51.018;13.586;2023-08-07T05:55:42;5.78;;;5.18;;
43154;SDS011;34212;51.018;13.586;2023-08-07T06:01:30;5.35;;;4.57;;
43154;SDS011;34212;51.018;13.586;2023-08-07T06:06:34;4.30;;;3.90;;
43154;SDS011;34212;51.018;13.586;2023-08-07T06:16:38;5.28;;;3.28;;
43154;SDS011;34212;51.018;13.586;2023-08-07T06:21:40;8.97;;;4.20;;
43154;SDS011;34212;51.018;13.586;2023-08-07T06:26:41;4.00;;;3.00;;
43154;SDS011;34212;51.018;13.586;2023-08-07T06:31:44;4.30;;;3.50;;
43154;SDS011;34212;51.018;13.586;2023-08-07T06:36:51;3.30;;;3.00;;
43154;SDS011;34212;51.018;13.586;2023-08-07T06:41:53;3.00;;;2.43;;
43154;SDS011;34212;51.018;13.586;2023-08-07T06:47:02;6.32;;;3.22;;
43154;SDS011;34212;51.018;13.586;2023-08-07T06:52:03;4.70;;;2.47;;
43154;SDS011;34212;51.018;13.586;2023-08-07T06:57:05;4.55;;;2.97;;
43154;SDS011;34212;51.018;13.586;2023-08-07T07:02:07;3.53;;;2.23;;
43154;SDS011;34212;51.018;13.586;2023-08-07T07:07:08;8.47;;;2.90;;
43154;SDS011;34212;51.018;13.586;2023-08-07T07:12:10;3.80;;;2.60;;
43154;SDS011;34212;51.018;13.586;2023-08-07T07:17:11;4.97;;;2.57;;
43154;SDS011;34212;51.018;13.586;2023-08-07T07:22:13;3.77;;;2.67;;
43154;SDS011;34212;51.018;13.586;2023-08-07T07:27:15;3.03;;;2.60;;
43154;SDS011;34212;51.018;13.586;2023-08-07T07:32:16;4.47;;;2.50;;
43154;SDS011;34212;51.018;13.586;2023-08-07T07:37:18;3.33;;;2.40;;
43154;SDS011;34212;51.018;13.586;2023-08-07T07:42:19;1.90;;;1.77;;
43154;SDS011;34212;51.018;13.586;2023-08-07T07:47:21;2.63;;;2.27;;
43154;SDS011;34212;51.018;13.586;2023-08-07T07:52:22;4.77;;;2.07;;
43154;SDS011;34212;51.018;13.586;2023-08-07T07:57:24;3.63;;;2.20;;
43154;SDS011;34212;51.018;13.586;2023-08-07T08:02:25;6.65;;;2.25;;
43154;SDS011;34212;51.018;13.586;2023-08-07T08:07:27;5.17;;;1.87;;
43154;SDS011;34212;51.018;13.586;2023-08-07T08:12:30;2.25;;;1.67;;
43154;SDS011;34212;51.018;13.586;2023-08-07T08:17:31;2.60;;;1.60;;
43154;SDS011;34212;51.018;13.586;2023-08-07T08:27:36;3.23;;;1.83;;
43154;SDS011;34212;51.018;13.586;2023-08-07T08:32:38;4.03;;;2.27;;
43154;SDS011;34212;51.018;13.586;2023-08-07T08:37:40;2.00;;;1.50;;
43154;SDS011;34212;51.018;13.586;2023-08-07T08:42:43;2.37;;;1.80;;
43154;SDS011;34212;51.018;13.586;2023-08-07T08:47:45;2.72;;;2.00;;
43154;SDS011;34212;51.018;13.586;2023-08-07T08:52:50;2.42;;;1.50;;
43154;SDS011;34212;51.018;13.586;2023-08-07T08:57:52;5.28;;;1.45;;
43154;SDS011;34212;51.018;13.586;2023-08-07T09:07:56;2.88;;;1.65;;
43154;SDS011;34212;51.018;13.586;2023-08-07T09:13:03;4.25;;;1.55;;
43154;SDS011;34212;51.018;13.586;2023-08-07T09:18:08;1.70;;;1.48;;
43154;SDS011;34212;51.018;13.586;2023-08-07T09:23:10;3.53;;;1.88;;
43154;SDS011;34212;51.018;13.586;2023-08-07T09:28:12;2.85;;;1.40;;
43154;SDS011;34212;51.018;13.586;2023-08-07T09:33:14;3.20;;;1.52;;
43154;SDS011;34212;51.018;13.586;2023-08-07T09:38:15;1.90;;;1.40;;
43154;SDS011;34212;51.018;13.586;2023-08-07T09:43:21;1.70;;;1.30;;
43154;SDS011;34212;51.018;13.586;2023-08-07T09:48:24;3.45;;;1.40;;
43154;SDS011;34212;51.018;13.586;2023-08-07T09:53:26;1.98;;;1.42;;
43154;SDS011;34212;51.018;13.586;2023-08-07T09:58:29;3.20;;;1.73;;
43154;SDS011;34212;51.018;13.586;2023-08-07T10:03:31;2.55;;;1.20;;
43154;SDS011;34212;51.018;13.586;2023-08-07T10:08:33;1.50;;;1.40;;
43154;SDS011;34212;51.018;13.586;2023-08-07T10:13:37;2.22;;;1.60;;
43154;SDS011;34212;51.018;13.586;2023-08-07T10:18:40;2.92;;;1.50;;
43154;SDS011;34212;51.018;13.586;2023-08-07T10:23:43;2.33;;;1.50;;
43154;SDS011;34212;51.018;13.586;2023-08-07T10:28:45;3.00;;;1.50;;
43154;SDS011;34212;51.018;13.586;2023-08-07T10:38:49;4.68;;;1.80;;
43154;SDS011;34212;51.018;13.586;2023-08-07T10:43:52;2.85;;;1.50;;
43154;SDS011;34212;51.018;13.586;2023-08-07T10:48:55;2.20;;;1.10;;
43154;SDS011;34212;51.018;13.586;2023-08-07T10:54:01;3.25;;;1.55;;
43154;SDS011;34212;51.018;13.586;2023-08-07T11:04:14;2.15;;;1.38;;
43154;SDS011;34212;51.018;13.586;2023-08-07T11:09:16;1.52;;;1.27;;
43154;SDS011;34212;51.018;13.586;2023-08-07T11:14:18;1.70;;;1.40;;
43154;SDS011;34212;51.018;13.586;2023-08-07T11:19:20;2.28;;;1.40;;
43154;SDS011;34212;51.018;13.586;2023-08-07T11:24:23;1.50;;;1.17;;
43154;SDS011;34212;51.018;13.586;2023-08-07T11:29:28;1.23;;;1.02;;
43154;SDS011;34212;51.018;13.586;2023-08-07T11:34:32;1.35;;;1.10;;
43154;SDS011;34212;51.018;13.586;2023-08-07T11:39:33;3.03;;;1.10;;
43154;SDS011;34212;51.018;13.586;2023-08-07T11:44:43;1.30;;;1.05;;
43154;SDS011;34212;51.018;13.586;2023-08-07T11:49:44;1.50;;;0.83;;
43154;SDS011;34212;51.018;13.586;2023-08-07T11:54:46;2.63;;;0.90;;
43154;SDS011;34212;51.018;13.586;2023-08-07T11:59:49;0.80;;;0.80;;
43154;SDS011;34212;51.018;13.586;2023-08-07T12:04:56;1.40;;;0.90;;
43154;SDS011;34212;51.018;13.586;2023-08-07T12:09:59;3.25;;;0.80;;
43154;SDS011;34212;51.018;13.586;2023-08-07T12:15:00;1.05;;;0.90;;
43154;SDS011;34212;51.018;13.586;2023-08-07T12:20:03;0.82;;;0.80;;
43154;SDS011;34212;51.018;13.586;2023-08-07T12:25:07;1.00;;;0.90;;
43154;SDS011;34212;51.018;13.586;2023-08-07T12:30:09;1.02;;;0.90;;
43154;SDS011;34212;51.018;13.586;2023-08-07T12:40:16;1.88;;;1.00;;
43154;SDS011;34212;51.018;13.586;2023-08-07T12:45:24;1.10;;;0.80;;
43154;SDS011;34212;51.018;13.586;2023-08-07T12:50:29;0.80;;;0.80;;
43154;SDS011;34212;51.018;13.586;2023-08-07T13:00:32;0.90;;;0.70;;
43154;SDS011;34212;51.018;13.586;2023-08-07T13:05:34;1.80;;;0.70;;
43154;SDS011;34212;51.018;13.586;2023-08-07T13:10:38;2.30;;;0.80;;
43154;SDS011;34212;51.018;13.586;2023-08-07T13:20:42;0.93;;;0.88;;
43154;SDS011;34212;51.018;13.586;2023-08-07T13:25:43;0.85;;;0.80;;
43154;SDS011;34212;51.018;13.586;2023-08-07T13:30:45;0.80;;;0.70;;
43154;SDS011;34212;51.018;13.586;2023-08-07T13:35:46;0.82;;;0.70;;
43154;SDS011;34212;51.018;13.586;2023-08-07T13:40:49;0.73;;;0.73;;
43154;SDS011;34212;51.018;13.586;2023-08-07T13:45:52;0.98;;;0.77;;
43154;SDS011;34212;51.018;13.586;2023-08-07T13:50:53;0.93;;;0.60;;
43154;SDS011;34212;51.018;13.586;2023-08-07T13:55:55;3.00;;;0.75;;
43154;SDS011;34212;51.018;13.586;2023-08-07T14:00:57;0.70;;;0.70;;
43154;SDS011;34212;51.018;13.586;2023-08-07T14:11:00;0.68;;;0.68;;
43154;SDS011;34212;51.018;13.586;2023-08-07T14:16:01;5.60;;;1.30;;
43154;SDS011;34212;51.018;13.586;2023-08-07T14:26:05;2.70;;;1.20;;
43154;SDS011;34212;51.018;13.586;2023-08-07T14:31:07;1.00;;;1.00;;
43154;SDS011;34212;51.018;13.586;2023-08-07T14:36:10;1.88;;;0.90;;
43154;SDS011;34212;51.018;13.586;2023-08-07T14:41:11;1.23;;;0.93;;
43154;SDS011;34212;51.018;13.586;2023-08-07T14:46:13;1.43;;;1.00;;
43154;SDS011;34212;51.018;13.586;2023-08-07T14:51:15;1.35;;;1.00;;
43154;SDS011;34212;51.018;13.586;2023-08-07T14:56:17;0.80;;;0.80;;
43154;SDS011;34212;51.018;13.586;2023-08-07T15:01:18;1.17;;;0.80;;
43154;SDS011;34212;51.018;13.586;2023-08-07T15:06:20;0.93;;;0.82;;
43154;SDS011;34212;51.018;13.586;2023-08-07T15:11:22;1.38;;;0.70;;
43154;SDS011;34212;51.018;13.586;2023-08-07T15:16:24;1.43;;;0.90;;
43154;SDS011;34212;51.018;13.586;2023-08-07T15:21:26;1.48;;;1.08;;
43154;SDS011;34212;51.018;13.586;2023-08-07T15:26:27;0.80;;;0.80;;
43154;SDS011;34212;51.018;13.586;2023-08-07T15:31:29;1.00;;;0.90;;
43154;SDS011;34212;51.018;13.586;2023-08-07T15:36:31;1.05;;;0.70;;
43154;SDS011;34212;51.018;13.586;2023-08-07T15:41:32;0.97;;;0.83;;
43154;SDS011;34212;51.018;13.586;2023-08-07T15:46:34;1.10;;;1.00;;
43154;SDS011;34212;51.018;13.586;2023-08-07T15:51:35;1.23;;;0.73;;
43154;SDS011;34212;51.018;13.586;2023-08-07T15:56:37;28.33;;;1.73;;
43154;SDS011;34212;51.018;13.586;2023-08-07T16:01:38;6.10;;;1.20;;
43154;SDS011;34212;51.018;13.586;2023-08-07T16:06:40;1.40;;;1.10;;
43154;SDS011;34212;51.018;13.586;2023-08-07T16:11:41;2.57;;;0.83;;
43154;SDS011;34212;51.018;13.586;2023-08-07T16:16:43;2.05;;;0.90;;
43154;SDS011;34212;51.018;13.586;2023-08-07T16:21:44;1.90;;;1.00;;
43154;SDS011;34212;51.018;13.586;2023-08-07T16:26:46;1.33;;;1.00;;
43154;SDS011;34212;51.018;13.586;2023-08-07T16:31:48;1.73;;;1.57;;
43154;SDS011;34212;51.018;13.586;2023-08-07T16:36:49;4.33;;;1.40;;
43154;SDS011;34212;51.018;13.586;2023-08-07T16:41:50;3.20;;;1.20;;
43154;SDS011;34212;51.018;13.586;2023-08-07T16:46:52;3.43;;;1.00;;
43154;SDS011;34212;51.018;13.586;2023-08-07T16:51:53;3.07;;;1.30;;
43154;SDS011;34212;51.018;13.586;2023-08-07T16:56:59;2.00;;;0.95;;
43154;SDS011;34212;51.018;13.586;2023-08-07T17:02:01;1.58;;;1.10;;
43154;SDS011;34212;51.018;13.586;2023-08-07T17:07:03;2.33;;;1.20;;
43154;SDS011;34212;51.018;13.586;2023-08-07T17:12:05;5.03;;;1.67;;
43154;SDS011;34212;51.018;13.586;2023-08-07T17:17:07;6.47;;;2.15;;
43154;SDS011;34212;51.018;13.586;2023-08-07T17:22:09;1.97;;;1.27;;
43154;SDS011;34212;51.018;13.586;2023-08-07T17:27:10;2.87;;;1.63;;
43154;SDS011;34212;51.018;13.586;2023-08-07T17:32:12;4.23;;;1.33;;
43154;SDS011;34212;51.018;13.586;2023-08-07T17:37:13;4.37;;;1.70;;
43154;SDS011;34212;51.018;13.586;2023-08-07T17:42:25;3.65;;;1.50;;
43154;SDS011;34212;51.018;13.586;2023-08-07T17:47:29;3.35;;;1.50;;
43154;SDS011;34212;51.018;13.586;2023-08-07T17:52:32;3.55;;;1.55;;
43154;SDS011;34212;51.018;13.586;2023-08-07T17:57:35;3.25;;;1.52;;
43154;SDS011;34212;51.018;13.586;2023-08-07T18:02:39;4.85;;;1.58;;
43154;SDS011;34212;51.018;13.586;2023-08-07T18:07:43;3.60;;;1.48;;
43154;SDS011;34212;51.018;13.586;2023-08-07T18:12:46;3.75;;;1.85;;
43154;SDS011;34212;51.018;13.586;2023-08-07T18:17:48;2.50;;;1.57;;
43154;SDS011;34212;51.018;13.586;2023-08-07T18:22:53;2.38;;;1.50;;
43154;SDS011;34212;51.018;13.586;2023-08-07T18:28:08;4.22;;;2.10;;
43154;SDS011;34212;51.018;13.586;2023-08-07T18:33:14;8.38;;;2.03;;
43154;SDS011;34212;51.018;13.586;2023-08-07T18:38:18;5.07;;;2.42;;
43154;SDS011;34212;51.018;13.586;2023-08-07T18:43:23;4.20;;;2.15;;
43154;SDS011;34212;51.018;13.586;2023-08-07T18:48:30;4.93;;;2.15;;
43154;SDS011;34212;51.018;13.586;2023-08-07T18:53:35;3.92;;;2.08;;
43154;SDS011;34212;51.018;13.586;2023-08-07T18:58:36;9.30;;;2.30;;
43154;SDS011;34212;51.018;13.586;2023-08-07T19:03:38;3.47;;;1.90;;
43154;SDS011;34212;51.018;13.586;2023-08-07T19:08:40;6.40;;;2.15;;
43154;SDS011;34212;51.018;13.586;2023-08-07T19:13:42;5.95;;;2.30;;
43154;SDS011;34212;51.018;13.586;2023-08-07T19:18:43;10.20;;;3.23;;
43154;SDS011;34212;51.018;13.586;2023-08-07T19:23:45;13.07;;;2.67;;
43154;SDS011;34212;51.018;13.586;2023-08-07T19:28:47;5.77;;;2.30;;
43154;SDS011;34212;51.018;13.586;2023-08-07T19:33:51;8.15;;;2.75;;
43154;SDS011;34212;51.018;13.586;2023-08-07T19:38:52;5.20;;;2.30;;
43154;SDS011;34212;51.018;13.586;2023-08-07T19:43:54;6.20;;;2.17;;
43154;SDS011;34212;51.018;13.586;2023-08-07T19:48:55;4.90;;;2.93;;
43154;SDS011;34212;51.018;13.586;2023-08-07T19:54:00;4.80;;;2.08;;
43154;SDS011;34212;51.018;13.586;2023-08-07T19:59:03;4.97;;;2.45;;
43154;SDS011;34212;51.018;13.586;2023-08-07T20:04:09;8.07;;;2.50;;
43154;SDS011;34212;51.018;13.586;2023-08-07T20:09:18;5.95;;;2.35;;
43154;SDS011;34212;51.018;13.586;2023-08-07T20:14:22;4.70;;;2.45;;
43154;SDS011;34212;51.018;13.586;2023-08-07T20:19:25;7.07;;;2.15;;
43154;SDS011;34212;51.018;13.586;2023-08-07T20:24:56;5.53;;;2.20;;
43154;SDS011;34212;51.018;13.586;2023-08-07T20:30:18;7.50;;;2.50;;
43154;SDS011;34212;51.018;13.586;2023-08-07T20:41:23;4.38;;;2.03;;
43154;SDS011;34212;51.018;13.586;2023-08-07T20:46:30;4.97;;;2.17;;
43154;SDS011;34212;51.018;13.586;2023-08-07T20:51:40;4.90;;;1.77;;
43154;SDS011;34212;51.018;13.586;2023-08-07T20:56:58;5.90;;;2.15;;
43154;SDS011;34212;51.018;13.586;2023-08-07T21:02:04;8.00;;;2.13;;
43154;SDS011;34212;51.018;13.586;2023-08-07T21:07:42;5.00;;;2.00;;
43154;SDS011;34212;51.018;13.586;2023-08-07T21:12:55;6.97;;;1.95;;
43154;SDS011;34212;51.018;13.586;2023-08-07T21:17:59;5.53;;;2.10;;
43154;SDS011;34212;51.018;13.586;2023-08-07T21:23:01;6.07;;;2.13;;
43154;SDS011;34212;51.018;13.586;2023-08-07T21:28:03;5.78;;;2.83;;
43154;SDS011;34212;51.018;13.586;2023-08-07T21:33:08;4.65;;;2.03;;
43154;SDS011;34212;51.018;13.586;2023-08-07T21:38:11;7.85;;;2.38;;
43154;SDS011;34212;51.018;13.586;2023-08-07T21:43:14;4.32;;;2.20;;
43154;SDS011;34212;51.018;13.586;2023-08-07T21:48:16;5.97;;;2.60;;
43154;SDS011;34212;51.018;13.586;2023-08-07T21:53:22;4.88;;;2.35;;
43154;SDS011;34212;51.018;13.586;2023-08-07T21:58:30;6.43;;;2.55;;
43154;SDS011;34212;51.018;13.586;2023-08-07T22:03:33;10.75;;;2.58;;
43154;SDS011;34212;51.018;13.586;2023-08-07T22:08:37;4.82;;;2.03;;
43154;SDS011;34212;51.018;13.586;2023-08-07T22:13:39;6.25;;;2.30;;
43154;SDS011;34212;51.018;13.586;2023-08-07T22:18:40;4.80;;;1.90;;
43154;SDS011;34212;51.018;13.586;2023-08-07T22:23:42;6.93;;;2.23;;
43154;SDS011;34212;51.018;13.586;2023-08-07T22:28:43;6.03;;;2.10;;
43154;SDS011;34212;51.018;13.586;2023-08-07T22:33:45;2.83;;;1.98;;
43154;SDS011;34212;51.018;13.586;2023-08-07T22:38:48;7.32;;;2.38;;
43154;SDS011;34212;51.018;13.586;2023-08-07T22:43:49;5.93;;;2.20;;
43154;SDS011;34212;51.018;13.586;2023-08-07T22:48:51;4.37;;;1.93;;
43154;SDS011;34212;51.018;13.586;2023-08-07T22:53:54;4.80;;;2.10;;
43154;SDS011;34212;51.018;13.586;2023-08-07T22:58:55;9.33;;;2.20;;
43154;SDS011;34212;51.018;13.586;2023-08-07T23:03:57;2.70;;;2.10;;
43154;SDS011;34212;51.018;13.586;2023-08-07T23:08:58;10.27;;;1.90;;
43154;SDS011;34212;51.018;13.586;2023-08-07T23:14:01;7.43;;;2.30;;
43154;SDS011;34212;51.018;13.586;2023-08-07T23:19:03;3.83;;;1.87;;
43154;SDS011;34212;51.018;13.586;2023-08-07T23:24:05;5.43;;;1.98;;
43154;SDS011;34212;51.018;13.586;2023-08-07T23:34:08;3.58;;;2.38;;
43154;SDS011;34212;51.018;13.586;2023-08-07T23:39:10;4.75;;;2.25;;
43154;SDS011;34212;51.018;13.586;2023-08-07T23:44:11;3.53;;;1.95;;
43154;SDS011;34212;51.018;13.586;2023-08-07T23:49:13;3.53;;;1.98;;
43154;SDS011;34212;51.018;13.586;2023-08-07T23:54:14;5.63;;;2.10;;
43154;SDS011;34212;51.018;13.586;2023-08-07T23:59:16;3.60;;;1.70;;
